עמוד ראשי
METAR-TAF:

METAR-TAF

שדות תעופה :

Punta Cana, הרפובליקה הדומיניקאנית

קו רוחב: 18-34N, קו אורך: 068-22W, גובה: 12מטר

תצפית מזג אוויר נוכחית

הדו"ח נערך לפני 1 שעות ו 8דקות, בשעה 23:00 UTC
רוח 8קשר מכיוון מזרח/צפון-מזרח
טמפרטורת 29 צלסיוס
לחות 79%
לחץ 1015 hPa
ראות 10 קילומטר או יותר
מעט עננים בגובה 2000רגל

METAR: MDPC 122300Z 06008KT 9999 FEW020 29/25 Q1015

זמן: 20:08 (00:08 UTC)

תחזית

הדו"ח נערך לפני 2 שעות ו 8דקות, בשעה 22:00 UTC
תחזית בתוקף מ 13 ב 00 UTC עד 14 ב 00 UTC
רוח 5קשר מכיוון צפון-מזרח
ראות 10 קילומטר או יותר
מעט עננים בגובה 1800רגל

TAF: MDPC 122200Z 1300/1400 05005KT 9999 FEW018

תצפיות ותחזיות מזג אוויר לגבי יותר מ- 4,000 שדות תעופה ברחבי העולם. דוחות METAR ו- TAF.

התחנות הזמינות מסומנות בנקודות צהובות ואדומות על גבי המפה.

העבר את העכבר לנקודה הצבעונית על מנת לראות את שם התחנה.

לאחר מכן, לחץ כדי לראות את תוכן ואת תחזיות מזג האוויר.

כדי לשנות את המפה: לחץ על הכפתורים הירוקים עם הפלוס השחור כדי להתקרב; על הכפתור הירוק עם המקף כדי להתרחק; או בחיצים הירוקים למפות סמוכות.


METAR-TAF: